createdAt,value
2023-05-16T00:02:05.902Z,12.60
2023-05-16T00:04:36.659Z,12.60
2023-05-16T00:07:06.492Z,12.70
2023-05-16T00:09:36.208Z,12.80
2023-05-16T00:12:08.723Z,12.90
2023-05-16T00:14:37.381Z,12.90
2023-05-16T00:17:12.230Z,13.00
2023-05-16T00:19:42.491Z,12.90
2023-05-16T00:22:12.367Z,13.00
2023-05-16T00:24:42.244Z,13.00
2023-05-16T00:27:13.290Z,13.10
2023-05-16T00:29:43.691Z,13.10
2023-05-16T00:32:13.677Z,13.10
2023-05-16T00:34:43.580Z,13.20
2023-05-16T00:37:13.886Z,13.00
2023-05-16T00:39:43.595Z,13.00
2023-05-16T00:42:14.928Z,12.90
2023-05-16T00:44:44.579Z,12.80
2023-05-16T00:47:14.907Z,12.80
2023-05-16T00:49:44.994Z,12.70
2023-05-16T00:52:14.799Z,12.70
2023-05-16T00:54:43.049Z,12.60
2023-05-16T00:57:14.836Z,12.60
2023-05-16T00:59:46.182Z,12.50
2023-05-16T01:02:16.098Z,12.50
2023-05-16T01:04:49.794Z,12.40
2023-05-16T01:07:22.179Z,12.40
2023-05-16T01:09:52.106Z,12.40
2023-05-16T01:12:31.296Z,12.30
2023-05-16T01:15:06.613Z,12.30
2023-05-16T01:17:43.541Z,12.30
2023-05-16T01:20:26.252Z,12.20
2023-05-16T01:23:06.843Z,12.20
2023-05-16T01:25:47.279Z,12.20
2023-05-16T01:28:19.353Z,12.20
2023-05-16T01:30:49.294Z,12.10
2023-05-16T01:33:19.258Z,12.10
2023-05-16T01:36:00.897Z,12.10
2023-05-16T01:38:38.860Z,12.00
2023-05-16T01:41:14.302Z,12.00
2023-05-16T01:43:49.448Z,11.90
2023-05-16T01:46:22.802Z,11.90
2023-05-16T01:49:00.133Z,11.90
2023-05-16T01:51:33.490Z,11.90
2023-05-16T01:54:07.575Z,11.90
2023-05-16T01:56:38.500Z,11.80
2023-05-16T01:59:11.055Z,11.90
2023-05-16T02:01:41.009Z,11.90
2023-05-16T02:04:10.758Z,11.80
2023-05-16T02:06:40.798Z,11.80
2023-05-16T02:09:10.982Z,11.80
2023-05-16T02:11:40.792Z,11.80
2023-05-16T02:14:11.994Z,11.80
2023-05-16T02:16:41.835Z,11.80
2023-05-16T02:19:12.152Z,11.80
2023-05-16T02:21:41.909Z,11.70
2023-05-16T02:24:11.764Z,11.60
2023-05-16T02:26:41.573Z,11.50
2023-05-16T02:29:12.906Z,11.50
2023-05-16T02:31:43.274Z,11.40
2023-05-16T02:34:13.094Z,11.40
2023-05-16T02:36:42.830Z,11.40
2023-05-16T02:39:12.895Z,11.50
2023-05-16T02:41:42.491Z,11.50
2023-05-16T02:44:13.655Z,11.40
2023-05-16T02:46:43.559Z,11.20
2023-05-16T02:49:13.322Z,11.10
2023-05-16T02:51:43.356Z,11.20
2023-05-16T02:54:12.872Z,11.10
2023-05-16T02:56:42.798Z,10.90
2023-05-16T02:59:14.538Z,10.70
2023-05-16T03:01:44.157Z,10.70
2023-05-16T03:04:14.352Z,10.70
2023-05-16T03:06:44.074Z,10.60
2023-05-16T03:09:13.841Z,10.60
2023-05-16T03:11:43.752Z,10.60
2023-05-16T03:14:14.955Z,10.40
2023-05-16T03:16:44.994Z,10.20
2023-05-16T03:19:15.103Z,10.00
2023-05-16T03:21:44.937Z,9.90
2023-05-16T03:24:14.768Z,9.90
2023-05-16T03:26:44.753Z,9.90
2023-05-16T03:29:16.311Z,9.80
2023-05-16T03:31:46.228Z,9.80
2023-05-16T03:34:16.084Z,9.90
2023-05-16T03:36:49.007Z,10.00
2023-05-16T03:39:19.284Z,10.20
2023-05-16T03:41:49.193Z,10.10
2023-05-16T03:44:21.038Z,10.20
2023-05-16T03:46:52.776Z,10.30
2023-05-16T03:49:24.820Z,10.30
2023-05-16T03:51:58.267Z,10.50
2023-05-16T03:54:28.118Z,10.50
2023-05-16T03:56:59.010Z,10.40
2023-05-16T03:59:30.413Z,10.30
2023-05-16T04:02:00.211Z,10.20
2023-05-16T04:04:29.987Z,10.40
2023-05-16T04:06:59.872Z,10.50
2023-05-16T04:09:29.760Z,10.60
2023-05-16T04:12:02.021Z,10.60
2023-05-16T04:14:34.008Z,10.70
2023-05-16T04:17:03.960Z,10.80
2023-05-16T04:19:33.857Z,10.90
2023-05-16T04:22:03.689Z,11.00
2023-05-16T04:24:33.465Z,11.00
2023-05-16T04:27:04.807Z,11.20
2023-05-16T04:29:35.959Z,11.30
2023-05-16T04:32:07.505Z,11.50
2023-05-16T04:34:39.833Z,11.50
2023-05-16T04:37:10.254Z,11.60
2023-05-16T04:39:40.097Z,11.60
2023-05-16T04:42:09.787Z,11.60
2023-05-16T04:44:40.978Z,11.70
2023-05-16T04:47:11.821Z,11.70
2023-05-16T04:49:41.421Z,11.70
2023-05-16T04:52:11.221Z,11.80
2023-05-16T04:54:41.591Z,11.80
2023-05-16T04:57:11.363Z,11.90
2023-05-16T04:59:42.451Z,11.90
2023-05-16T05:02:12.667Z,11.90
2023-05-16T05:04:42.596Z,11.90
2023-05-16T05:07:12.426Z,12.00
2023-05-16T05:09:42.984Z,12.00
2023-05-16T05:12:13.087Z,12.00
2023-05-16T05:14:44.034Z,12.00
2023-05-16T05:17:13.969Z,12.00
2023-05-16T05:19:44.065Z,12.00
2023-05-16T05:22:13.802Z,12.00
2023-05-16T05:24:43.577Z,12.00
2023-05-16T05:27:13.418Z,12.00
2023-05-16T05:29:44.354Z,12.00
2023-05-16T05:32:14.161Z,11.80
2023-05-16T05:34:44.028Z,11.80
2023-05-16T05:37:13.792Z,11.80
2023-05-16T05:39:45.083Z,11.70
2023-05-16T05:42:14.715Z,11.70
2023-05-16T05:44:45.918Z,11.70
2023-05-16T05:47:16.094Z,11.90
2023-05-16T05:49:46.074Z,11.90
2023-05-16T05:52:14.100Z,12.00
2023-05-16T05:54:43.917Z,11.90
2023-05-16T05:57:13.773Z,11.90
2023-05-16T05:59:42.984Z,12.00
2023-05-16T06:02:12.834Z,12.00
2023-05-16T06:04:43.227Z,12.10
2023-05-16T06:07:13.013Z,12.10
2023-05-16T06:09:43.596Z,12.10
2023-05-16T06:12:13.181Z,12.10
2023-05-16T06:14:45.291Z,12.10
2023-05-16T06:17:18.806Z,12.10
2023-05-16T06:19:48.685Z,12.10
2023-05-16T06:22:18.400Z,12.10
2023-05-16T06:24:48.153Z,12.00
2023-05-16T06:27:17.879Z,12.00
2023-05-16T06:29:47.657Z,12.00
2023-05-16T06:32:18.858Z,12.00
2023-05-16T06:34:49.464Z,11.90
2023-05-16T06:37:19.005Z,11.80
2023-05-16T06:39:50.499Z,11.90
2023-05-16T06:42:22.441Z,11.80
2023-05-16T06:44:52.038Z,11.80
2023-05-16T06:47:23.260Z,11.80
2023-05-16T06:49:55.741Z,11.70
2023-05-16T06:52:25.484Z,11.70
2023-05-16T06:54:55.968Z,11.60
2023-05-16T06:57:26.298Z,11.60
2023-05-16T06:59:56.194Z,11.60
2023-05-16T07:02:27.587Z,11.70
2023-05-16T07:04:57.264Z,11.70
2023-05-16T07:07:27.175Z,11.80
2023-05-16T07:09:57.108Z,11.80
2023-05-16T07:12:29.172Z,11.80
2023-05-16T07:14:59.254Z,11.80
2023-05-16T07:17:31.006Z,11.80
2023-05-16T07:20:02.848Z,11.80
2023-05-16T07:22:34.354Z,11.80
2023-05-16T07:25:04.479Z,11.80
2023-05-16T07:27:36.538Z,11.80
2023-05-16T07:30:06.423Z,11.90
2023-05-16T07:32:38.090Z,12.00
2023-05-16T07:35:08.401Z,12.00
2023-05-16T07:37:38.368Z,12.00
2023-05-16T07:40:09.676Z,12.10
2023-05-16T07:42:39.504Z,12.10
2023-05-16T07:45:10.709Z,12.20
2023-05-16T07:47:42.052Z,12.30
2023-05-16T07:50:12.579Z,12.30
2023-05-16T07:52:42.539Z,12.50
2023-05-16T07:55:13.389Z,12.60
2023-05-16T07:57:43.722Z,12.70
2023-05-16T08:00:15.310Z,12.80
2023-05-16T08:02:46.934Z,13.00
2023-05-16T08:05:16.660Z,13.20
2023-05-16T08:07:46.520Z,13.20
2023-05-16T08:10:16.468Z,13.30
2023-05-16T08:12:46.415Z,13.10
2023-05-16T08:15:16.240Z,13.00
2023-05-16T08:17:47.455Z,12.70
2023-05-16T08:20:17.114Z,12.50
2023-05-16T08:22:46.896Z,12.30
2023-05-16T08:25:16.707Z,12.10
2023-05-16T08:27:46.646Z,11.70
2023-05-16T08:30:16.938Z,11.40
2023-05-16T08:32:48.195Z,11.20
2023-05-16T08:35:21.066Z,11.10
2023-05-16T08:37:50.970Z,11.00
2023-05-16T08:40:21.182Z,11.00
2023-05-16T08:42:50.768Z,10.90
2023-05-16T08:45:20.475Z,11.00
2023-05-16T08:47:55.424Z,11.00
2023-05-16T08:50:25.840Z,11.00
2023-05-16T08:52:56.237Z,11.00
2023-05-16T08:55:27.670Z,11.10
2023-05-16T08:57:58.188Z,11.10
2023-05-16T09:00:28.435Z,11.10
2023-05-16T09:02:59.822Z,11.20
2023-05-16T09:05:31.145Z,11.30
2023-05-16T09:08:01.251Z,11.40
2023-05-16T09:10:32.219Z,11.50
2023-05-16T09:13:01.731Z,11.60
2023-05-16T09:15:35.202Z,11.80
2023-05-16T09:18:07.241Z,11.90
2023-05-16T09:20:41.318Z,12.00
2023-05-16T09:23:12.869Z,12.00
2023-05-16T09:25:43.424Z,12.10
2023-05-16T09:28:14.322Z,12.10
2023-05-16T09:30:47.235Z,12.20
2023-05-16T09:33:18.467Z,12.20
2023-05-16T09:35:48.470Z,12.20
2023-05-16T09:38:20.889Z,12.20
2023-05-16T09:40:51.430Z,12.20
2023-05-16T09:43:24.149Z,12.20
2023-05-16T09:45:54.215Z,12.30
2023-05-16T09:48:28.361Z,12.30
2023-05-16T09:51:03.951Z,12.40
2023-05-16T09:53:34.696Z,12.50
2023-05-16T09:56:04.109Z,12.50
2023-05-16T09:58:35.286Z,12.50
2023-05-16T10:01:05.467Z,12.70
2023-05-16T10:03:39.502Z,12.70
2023-05-16T10:06:10.469Z,13.00
2023-05-16T10:08:42.798Z,13.10
2023-05-16T10:11:14.112Z,13.20
2023-05-16T10:13:49.003Z,13.10
2023-05-16T10:16:22.929Z,13.00
2023-05-16T10:18:54.880Z,13.00
2023-05-16T10:21:26.927Z,13.20
2023-05-16T10:23:59.681Z,13.30
2023-05-16T10:26:34.245Z,13.40
2023-05-16T10:29:06.896Z,13.60
2023-05-16T10:31:36.983Z,13.80
2023-05-16T10:34:08.535Z,14.10
2023-05-16T10:36:38.305Z,14.20
2023-05-16T10:39:08.831Z,14.40
2023-05-16T10:41:38.603Z,14.50
2023-05-16T10:44:17.071Z,14.60
2023-05-16T10:46:47.818Z,14.60
2023-05-16T10:49:26.477Z,14.90
2023-05-16T10:52:05.314Z,14.90
2023-05-16T10:54:40.392Z,15.10
2023-05-16T10:57:12.035Z,15.20
2023-05-16T10:59:45.193Z,15.20
2023-05-16T11:02:27.425Z,15.20
2023-05-16T11:05:00.406Z,15.50
2023-05-16T11:07:37.182Z,15.90
2023-05-16T11:10:11.970Z,16.30
2023-05-16T11:12:45.065Z,16.10
2023-05-16T11:15:24.965Z,16.10
2023-05-16T11:18:04.889Z,15.80
2023-05-16T11:20:37.637Z,15.80
2023-05-16T11:23:24.436Z,15.80
2023-05-16T11:25:57.464Z,15.90
2023-05-16T11:28:28.372Z,16.30
2023-05-16T11:31:00.372Z,16.50
2023-05-16T11:33:35.117Z,16.50
2023-05-16T11:38:43.800Z,16.10
2023-05-16T11:41:15.541Z,15.70
2023-05-16T11:43:48.218Z,15.60
2023-05-16T11:46:18.593Z,15.60
2023-05-16T11:48:48.433Z,16.10
2023-05-16T11:51:21.294Z,16.50
2023-05-16T11:53:50.779Z,16.50
2023-05-16T11:56:18.868Z,16.20
2023-05-16T11:58:48.970Z,16.10
2023-05-16T12:01:19.236Z,16.00
2023-05-16T12:03:56.416Z,16.10
2023-05-16T12:06:29.287Z,16.10
2023-05-16T12:08:58.908Z,16.00
2023-05-16T12:11:29.236Z,15.90
2023-05-16T12:13:59.156Z,15.90
2023-05-16T12:16:28.966Z,15.80
2023-05-16T12:18:59.036Z,15.70
2023-05-16T12:21:31.248Z,15.90
2023-05-16T12:24:02.850Z,16.10
2023-05-16T12:26:34.028Z,16.40
2023-05-16T12:29:05.775Z,16.70
2023-05-16T12:31:41.488Z,16.90
2023-05-16T12:34:23.121Z,16.70
2023-05-16T12:36:57.307Z,16.90
2023-05-16T12:39:27.221Z,16.90
2023-05-16T12:41:57.008Z,16.90
2023-05-16T12:44:31.158Z,16.40
2023-05-16T12:47:00.802Z,16.30
2023-05-16T12:49:34.144Z,16.50
2023-05-16T12:52:05.816Z,16.80
2023-05-16T12:54:36.921Z,16.90
2023-05-16T12:57:07.077Z,17.20
2023-05-16T12:59:37.049Z,17.40
2023-05-16T13:02:08.672Z,17.50
2023-05-16T13:04:39.970Z,17.50
2023-05-16T13:07:11.983Z,17.20
2023-05-16T13:09:41.980Z,17.10
2023-05-16T13:12:12.016Z,17.10
2023-05-16T13:14:43.724Z,17.40
2023-05-16T13:17:13.916Z,17.40
2023-05-16T13:19:43.745Z,17.30
2023-05-16T13:22:14.761Z,17.10
2023-05-16T13:24:44.601Z,17.00
2023-05-16T13:27:17.044Z,17.10
2023-05-16T13:29:47.609Z,17.00
2023-05-16T13:32:17.848Z,16.80
2023-05-16T13:34:47.472Z,16.50
2023-05-16T13:37:18.961Z,16.70
2023-05-16T13:39:50.547Z,17.00
2023-05-16T13:42:21.112Z,17.10
2023-05-16T13:44:50.927Z,17.20
2023-05-16T13:47:20.921Z,17.50
2023-05-16T13:49:51.119Z,17.20
2023-05-16T13:52:22.141Z,16.80
2023-05-16T13:54:52.028Z,16.80
2023-05-16T13:57:23.132Z,17.10
2023-05-16T14:02:26.632Z,17.20
2023-05-16T14:04:56.653Z,16.80
2023-05-16T14:07:28.157Z,16.50
2023-05-16T14:09:58.026Z,16.60
2023-05-16T14:12:27.923Z,16.90
2023-05-16T14:14:55.881Z,16.80
2023-05-16T14:17:25.826Z,17.10
2023-05-16T14:19:55.752Z,17.40
2023-05-16T14:22:25.033Z,17.80
2023-05-16T14:24:55.017Z,17.90
2023-05-16T14:27:24.890Z,17.80
2023-05-16T14:29:55.771Z,17.70
2023-05-16T14:32:25.781Z,17.30
2023-05-16T14:34:55.424Z,16.70
2023-05-16T14:37:25.395Z,16.60
2023-05-16T14:39:57.329Z,16.90
2023-05-16T14:42:26.877Z,16.70
2023-05-16T14:45:01.435Z,16.80
2023-05-16T14:47:31.363Z,17.20
2023-05-16T14:50:01.928Z,17.50
2023-05-16T14:52:31.714Z,17.70
2023-05-16T14:55:03.261Z,17.60
2023-05-16T14:57:32.858Z,17.60
2023-05-16T15:00:02.826Z,17.40
2023-05-16T15:02:32.756Z,17.40
2023-05-16T15:05:02.658Z,17.30
2023-05-16T15:07:32.571Z,17.00
2023-05-16T15:10:03.586Z,17.00
2023-05-16T15:12:33.293Z,16.80
2023-05-16T15:15:03.432Z,16.50
2023-05-16T15:17:33.229Z,16.20
2023-05-16T15:20:03.742Z,16.10
2023-05-16T15:22:33.397Z,16.10
2023-05-16T15:25:05.778Z,16.10
2023-05-16T15:27:35.751Z,16.20
2023-05-16T15:30:05.858Z,16.20
2023-05-16T15:32:35.879Z,16.30
2023-05-16T15:35:06.134Z,16.40
2023-05-16T15:37:36.007Z,16.50
2023-05-16T15:40:09.736Z,16.60
2023-05-16T15:42:39.476Z,16.60
2023-05-16T15:45:08.665Z,16.80
2023-05-16T15:47:38.341Z,16.70
2023-05-16T15:50:08.931Z,16.90
2023-05-16T15:52:38.688Z,16.40
2023-05-16T15:55:12.596Z,16.50
2023-05-16T15:57:43.772Z,16.60
2023-05-16T16:00:14.741Z,16.70
2023-05-16T16:02:46.103Z,16.70
2023-05-16T16:05:16.036Z,16.50
2023-05-16T16:07:46.020Z,16.60
2023-05-16T16:10:16.997Z,16.50
2023-05-16T16:12:59.012Z,16.60
2023-05-16T16:15:32.571Z,16.60
2023-05-16T16:18:03.607Z,16.50
2023-05-16T16:20:33.656Z,16.50
2023-05-16T16:23:04.078Z,16.50
2023-05-16T16:25:35.618Z,16.60
2023-05-16T16:28:05.700Z,16.30
2023-05-16T16:30:38.258Z,16.20
2023-05-16T16:33:08.222Z,16.10
2023-05-16T16:35:38.169Z,16.20
2023-05-16T16:38:07.829Z,15.90
2023-05-16T16:40:39.097Z,15.80
2023-05-16T16:43:11.110Z,15.70
2023-05-16T16:45:40.738Z,15.80
2023-05-16T16:48:13.704Z,15.80
2023-05-16T16:50:43.992Z,16.00
2023-05-16T16:53:13.806Z,15.90
2023-05-16T16:55:45.546Z,15.90
2023-05-16T16:58:15.453Z,15.90
2023-05-16T17:00:45.508Z,15.90
2023-05-16T17:03:15.801Z,15.80
2023-05-16T17:05:46.468Z,15.70
2023-05-16T17:08:16.411Z,15.70
2023-05-16T17:10:54.091Z,15.70
2023-05-16T17:13:24.019Z,15.70
2023-05-16T17:15:53.950Z,15.70
2023-05-16T17:18:23.901Z,15.70
2023-05-16T17:20:54.004Z,15.80
2023-05-16T17:23:23.585Z,15.80
2023-05-16T17:25:54.796Z,15.90
2023-05-16T17:28:25.040Z,15.80
2023-05-16T17:30:55.012Z,15.70
2023-05-16T17:33:24.799Z,15.60
2023-05-16T17:35:54.838Z,15.50
2023-05-16T17:38:25.184Z,15.60
2023-05-16T17:40:56.096Z,15.40
2023-05-16T17:43:27.027Z,15.10
2023-05-16T17:45:56.871Z,15.20
2023-05-16T17:48:27.839Z,15.30
2023-05-16T17:50:57.670Z,15.20
2023-05-16T17:53:27.738Z,15.00
2023-05-16T17:55:59.059Z,15.00
2023-05-16T17:58:29.282Z,14.90
2023-05-16T18:00:59.223Z,14.90
2023-05-16T18:03:29.132Z,14.90
2023-05-16T18:06:03.197Z,14.90
2023-05-16T18:08:32.811Z,14.80
2023-05-16T18:11:04.145Z,14.70
2023-05-16T18:13:34.290Z,14.70
2023-05-16T18:16:04.261Z,14.70
2023-05-16T18:18:37.185Z,14.60
2023-05-16T18:21:07.076Z,14.50
2023-05-16T18:23:37.413Z,14.40
2023-05-16T18:26:09.207Z,14.30
2023-05-16T18:28:39.675Z,14.20
2023-05-16T18:31:09.651Z,14.10
2023-05-16T18:33:39.430Z,14.10
2023-05-16T18:36:10.554Z,14.10
2023-05-16T18:38:40.668Z,14.00
2023-05-16T18:41:11.788Z,13.90
2023-05-16T18:43:41.774Z,13.70
2023-05-16T18:46:11.581Z,13.60
2023-05-16T18:48:41.522Z,13.50
2023-05-16T18:51:11.167Z,13.50
2023-05-16T18:53:41.110Z,13.40
2023-05-16T18:56:12.163Z,13.30
2023-05-16T18:58:42.600Z,13.20
2023-05-16T19:01:12.738Z,13.20
2023-05-16T19:03:42.690Z,13.10
2023-05-16T19:06:12.803Z,13.00
2023-05-16T19:08:48.085Z,13.00
2023-05-16T19:11:20.151Z,12.90
2023-05-16T19:13:50.198Z,12.90
2023-05-16T19:16:19.998Z,12.90
2023-05-16T19:18:51.343Z,12.80
2023-05-16T19:21:21.114Z,12.70
2023-05-16T19:23:51.252Z,12.60
2023-05-16T19:26:22.229Z,12.50
2023-05-16T19:28:52.076Z,12.50
2023-05-16T19:31:21.884Z,12.40
2023-05-16T19:33:54.908Z,12.40
2023-05-16T19:36:24.613Z,12.30
2023-05-16T19:38:54.581Z,12.20
2023-05-16T19:41:26.339Z,12.20
2023-05-16T19:43:56.178Z,12.20
2023-05-16T19:46:25.828Z,12.10
2023-05-16T19:48:55.940Z,12.10
2023-05-16T19:51:40.256Z,12.10
2023-05-16T19:54:11.008Z,12.00
2023-05-16T19:56:42.843Z,12.00
2023-05-16T19:59:12.920Z,11.90
2023-05-16T20:01:42.633Z,11.90
2023-05-16T20:04:12.388Z,11.80
2023-05-16T20:06:42.323Z,11.80
2023-05-16T20:09:12.307Z,11.80
2023-05-16T20:11:43.324Z,11.80
2023-05-16T20:14:13.158Z,11.70
2023-05-16T20:16:42.965Z,11.70
2023-05-16T20:19:13.658Z,11.70
2023-05-16T20:21:43.635Z,11.60
2023-05-16T20:24:13.635Z,11.50
2023-05-16T20:26:44.637Z,11.50
2023-05-16T20:29:14.552Z,11.50
2023-05-16T20:31:47.453Z,11.40
2023-05-16T20:34:17.278Z,11.40
2023-05-16T20:36:47.245Z,11.40
2023-05-16T20:39:17.057Z,11.40
2023-05-16T20:41:48.208Z,11.30
2023-05-16T20:44:18.102Z,11.30
2023-05-16T20:46:47.999Z,11.20
2023-05-16T20:49:17.887Z,11.00
2023-05-16T20:51:47.722Z,10.80
2023-05-16T20:54:17.515Z,10.70
2023-05-16T20:56:48.668Z,10.70
2023-05-16T20:59:18.468Z,10.70
2023-05-16T21:01:48.309Z,10.40
2023-05-16T21:04:18.231Z,10.10
2023-05-16T21:06:48.356Z,10.10
2023-05-16T21:09:18.281Z,9.90
2023-05-16T21:11:49.719Z,10.00
2023-05-16T21:14:19.342Z,9.70
2023-05-16T21:16:49.146Z,9.50
2023-05-16T21:19:19.032Z,9.50
2023-05-16T21:21:48.632Z,9.70
2023-05-16T21:24:18.520Z,9.90
2023-05-16T21:26:49.696Z,10.00
2023-05-16T21:29:19.439Z,9.70
2023-05-16T21:31:49.249Z,9.40
2023-05-16T21:34:19.132Z,9.30
2023-05-16T21:36:48.917Z,9.20
2023-05-16T21:39:18.800Z,9.20
2023-05-16T21:41:49.810Z,8.90
2023-05-16T21:44:20.722Z,9.00
2023-05-16T21:46:50.624Z,8.70
2023-05-16T21:49:20.558Z,8.60
2023-05-16T21:51:50.970Z,8.60
2023-05-16T21:54:20.904Z,8.50
2023-05-16T21:56:51.767Z,8.50
2023-05-16T21:59:21.601Z,8.30
2023-05-16T22:01:51.456Z,8.30
2023-05-16T22:04:21.380Z,8.20
2023-05-16T22:06:53.218Z,8.20
2023-05-16T22:09:22.770Z,8.30
2023-05-16T22:11:53.981Z,8.40
2023-05-16T22:14:23.846Z,8.40
2023-05-16T22:16:53.413Z,8.50
2023-05-16T22:19:23.420Z,8.60
2023-05-16T22:21:52.995Z,8.70
2023-05-16T22:24:24.310Z,8.60
2023-05-16T22:26:55.796Z,8.70
2023-05-16T22:29:25.447Z,8.80
2023-05-16T22:31:55.994Z,9.00
2023-05-16T22:34:25.846Z,9.10
2023-05-16T22:36:55.413Z,9.10
2023-05-16T22:39:25.270Z,9.20
2023-05-16T22:41:56.420Z,9.20
2023-05-16T22:44:26.193Z,9.20
2023-05-16T22:46:56.150Z,9.20
2023-05-16T22:49:25.904Z,9.20
2023-05-16T22:51:55.777Z,9.20
2023-05-16T22:54:25.570Z,9.20
2023-05-16T22:56:56.762Z,9.20
2023-05-16T22:59:26.598Z,9.10
2023-05-16T23:01:56.364Z,9.00
2023-05-16T23:04:26.332Z,8.90
2023-05-16T23:06:56.104Z,8.80
2023-05-16T23:09:25.909Z,8.80
2023-05-16T23:11:57.047Z,8.90
2023-05-16T23:14:26.848Z,8.90
2023-05-16T23:16:56.877Z,8.90
2023-05-16T23:19:26.746Z,8.90
2023-05-16T23:21:56.805Z,8.90
2023-05-16T23:24:26.545Z,8.90
2023-05-16T23:26:57.706Z,8.90
2023-05-16T23:29:27.643Z,8.90
2023-05-16T23:31:57.516Z,8.90
2023-05-16T23:34:27.299Z,8.80
2023-05-16T23:36:57.152Z,8.80
2023-05-16T23:39:26.954Z,8.80
2023-05-16T23:41:58.645Z,8.70
2023-05-16T23:44:28.242Z,8.70
2023-05-16T23:46:58.080Z,8.70
2023-05-16T23:49:27.948Z,8.60
2023-05-16T23:51:58.355Z,8.60
2023-05-16T23:54:28.576Z,8.60
2023-05-16T23:56:59.688Z,8.60
2023-05-16T23:59:29.463Z,8.50
